createdAt,value
2022-11-20T00:00:01.734Z,1.88
2022-11-20T00:05:01.965Z,1.98
2022-11-20T00:10:02.110Z,2.15
2022-11-20T00:15:01.655Z,2.05
2022-11-20T00:20:01.707Z,2.09
2022-11-20T00:25:01.452Z,2.22
2022-11-20T00:30:01.677Z,2.09
2022-11-20T00:35:01.674Z,2.06
2022-11-20T00:40:01.274Z,2.03
2022-11-20T00:45:01.719Z,2.08
2022-11-20T00:50:01.953Z,2.03
2022-11-20T00:55:01.415Z,1.88
2022-11-20T01:00:01.625Z,1.8
2022-11-20T01:05:02.094Z,1.78
2022-11-20T01:10:01.515Z,1.7
2022-11-20T01:15:01.649Z,1.76
2022-11-20T01:20:01.623Z,1.83
2022-11-20T01:25:01.447Z,1.8
2022-11-20T01:30:01.624Z,1.79
2022-11-20T01:35:01.540Z,1.86
2022-11-20T01:40:01.645Z,1.9
2022-11-20T01:45:01.895Z,1.85
2022-11-20T01:50:01.690Z,2
2022-11-20T01:55:02.005Z,2.2
2022-11-20T02:00:02.007Z,2.05
2022-11-20T02:05:01.795Z,2.13
2022-11-20T02:10:02.127Z,2.29
2022-11-20T02:15:01.691Z,2.29
2022-11-20T02:20:01.315Z,2.16
2022-11-20T02:25:02.111Z,1.85
2022-11-20T02:30:01.501Z,1.83
2022-11-20T02:35:02.229Z,1.9
2022-11-20T02:40:01.830Z,1.9
2022-11-20T02:45:01.746Z,1.87
2022-11-20T02:50:01.751Z,1.97
2022-11-20T02:55:01.924Z,2
2022-11-20T03:00:01.879Z,1.98
2022-11-20T03:05:01.833Z,1.8
2022-11-20T03:10:01.713Z,1.98
2022-11-20T03:15:01.793Z,2.12
2022-11-20T03:20:02.032Z,2.2
2022-11-20T03:25:02.216Z,2.28
2022-11-20T03:30:01.379Z,2.29
2022-11-20T03:35:01.671Z,2.29
2022-11-20T03:40:01.760Z,2.28
2022-11-20T03:45:01.932Z,2.13
2022-11-20T03:50:01.968Z,2.14
2022-11-20T03:55:02.060Z,2.24
2022-11-20T04:00:01.319Z,2.24
2022-11-20T04:05:02.136Z,2.36
2022-11-20T04:10:01.553Z,2.4
2022-11-20T04:15:01.673Z,2.36
2022-11-20T04:20:01.929Z,2.25
2022-11-20T04:25:01.891Z,2.4
2022-11-20T04:30:02.029Z,2.22
2022-11-20T04:35:02.093Z,2.44
2022-11-20T04:40:01.270Z,2.42
2022-11-20T04:45:01.703Z,2.41
2022-11-20T04:50:02.053Z,2.49
2022-11-20T04:55:01.945Z,2.47
2022-11-20T05:00:02.116Z,2.41
2022-11-20T05:05:01.865Z,2.39
2022-11-20T05:10:01.905Z,2.36
2022-11-20T05:15:02.128Z,2.43
2022-11-20T05:20:02.241Z,2.45
2022-11-20T05:25:02.293Z,2.45
2022-11-20T05:30:01.879Z,2.52
2022-11-20T05:35:02.097Z,2.53
2022-11-20T05:40:02.053Z,2.61
2022-11-20T05:45:01.395Z,2.7
2022-11-20T05:50:01.801Z,2.65
2022-11-20T05:55:01.844Z,2.69
2022-11-20T06:00:01.772Z,2.72
2022-11-20T06:05:02.188Z,2.74
2022-11-20T06:10:01.492Z,2.78
2022-11-20T06:15:01.624Z,2.71
2022-11-20T06:20:01.836Z,2.71
2022-11-20T06:25:01.876Z,2.73
2022-11-20T06:30:02.027Z,2.72
2022-11-20T06:35:02.245Z,2.74
2022-11-20T06:40:02.207Z,2.61
2022-11-20T06:45:01.925Z,2.58
2022-11-20T06:50:01.343Z,2.58
2022-11-20T06:55:01.715Z,2.71
2022-11-20T07:00:02.130Z,2.76
2022-11-20T07:05:01.623Z,2.76
2022-11-20T07:10:02.023Z,2.72
2022-11-20T07:15:01.666Z,2.46
2022-11-20T07:20:01.664Z,2.67
2022-11-20T07:25:01.774Z,2.58
2022-11-20T07:30:01.290Z,2.79
2022-11-20T07:35:01.889Z,2.87
2022-11-20T07:40:01.997Z,2.66
2022-11-20T07:45:01.954Z,2.72
2022-11-20T07:50:02.237Z,2.59
2022-11-20T07:55:01.390Z,2.76
2022-11-20T08:00:01.740Z,2.8
2022-11-20T08:05:02.213Z,2.64
2022-11-20T08:10:01.419Z,2.6
2022-11-20T08:15:02.192Z,2.83
2022-11-20T08:20:01.403Z,2.74
2022-11-20T08:25:01.320Z,2.86
2022-11-20T08:30:01.772Z,2.91
2022-11-20T08:35:01.750Z,3.13
2022-11-20T08:40:01.976Z,3.15
2022-11-20T08:45:02.201Z,3.02
2022-11-20T08:50:01.364Z,3.32
2022-11-20T08:55:01.745Z,3.4
2022-11-20T09:00:06.690Z,3.11
2022-11-20T09:05:02.211Z,3.14
2022-11-20T09:10:22.630Z,3.12
2022-11-20T09:15:01.788Z,3.26
2022-11-20T09:20:01.926Z,3.34
2022-11-20T09:25:01.470Z,3.52
2022-11-20T09:30:01.765Z,3.58
2022-11-20T09:35:01.889Z,3.62
2022-11-20T09:40:02.106Z,3.61
2022-11-20T09:45:02.151Z,3.98
2022-11-20T09:50:01.436Z,3.63
2022-11-20T09:55:01.296Z,3.65
2022-11-20T10:00:01.610Z,3.58
2022-11-20T10:05:01.465Z,3.83
2022-11-20T10:10:01.953Z,3.95
2022-11-20T10:15:02.116Z,4.22
2022-11-20T10:20:01.281Z,4.15
2022-11-20T10:25:01.804Z,4.07
2022-11-20T10:30:01.568Z,4.04
2022-11-20T10:35:01.960Z,3.98
2022-11-20T10:40:02.095Z,4.03
2022-11-20T10:45:05.632Z,4.15
2022-11-20T10:50:01.799Z,4.23
2022-11-20T10:55:02.151Z,4.16
2022-11-20T11:00:01.568Z,4.22
2022-11-20T11:05:01.961Z,4.21
2022-11-20T11:10:01.311Z,4.2
2022-11-20T11:15:02.261Z,4.26
2022-11-20T11:20:01.412Z,4.3
2022-11-20T11:25:01.998Z,4.37
2022-11-20T11:30:01.988Z,4.42
2022-11-20T11:35:01.715Z,4.5
2022-11-20T11:40:23.392Z,4.46
2022-11-20T11:45:01.831Z,4.46
2022-11-20T11:50:01.378Z,4.41
2022-11-20T11:55:03.144Z,4.35
2022-11-20T12:00:01.845Z,4.41
2022-11-20T12:05:02.077Z,4.45
2022-11-20T12:10:01.900Z,4.51
2022-11-20T12:15:02.296Z,4.61
2022-11-20T12:20:01.574Z,4.64
2022-11-20T12:25:02.054Z,4.64
2022-11-20T12:30:02.216Z,4.92
2022-11-20T12:35:01.498Z,5.01
2022-11-20T12:40:01.285Z,5.08
2022-11-20T12:45:01.897Z,5.11
2022-11-20T12:50:02.278Z,5.13
2022-11-20T12:55:01.923Z,5.12
2022-11-20T13:00:01.621Z,5.17
2022-11-20T13:05:01.392Z,5.26
2022-11-20T13:10:01.323Z,5.27
2022-11-20T13:15:01.969Z,5.35
2022-11-20T13:20:02.081Z,5.39
2022-11-20T13:25:02.128Z,5.5
2022-11-20T13:30:02.163Z,5.55
2022-11-20T13:35:02.153Z,5.63
2022-11-20T13:40:02.176Z,5.64
2022-11-20T13:45:01.346Z,5.68
2022-11-20T13:50:01.469Z,5.72
2022-11-20T13:55:01.444Z,5.75
2022-11-20T14:00:01.635Z,5.78
2022-11-20T14:05:01.988Z,5.8
2022-11-20T14:10:01.810Z,5.82
2022-11-20T14:15:02.073Z,5.85
2022-11-20T14:20:01.844Z,6.15
2022-11-20T14:25:01.449Z,5.98
2022-11-20T14:30:01.976Z,6.13
2022-11-20T14:35:01.688Z,6.21
2022-11-20T14:40:01.302Z,6.19
2022-11-20T14:50:04.693Z,6.28
2022-11-20T14:55:01.804Z,6.37
2022-11-20T15:00:01.986Z,6.31
2022-11-20T15:05:01.914Z,6.55
2022-11-20T15:10:01.570Z,6.38
2022-11-20T15:15:01.667Z,6.46
2022-11-20T15:20:01.889Z,6.44
2022-11-20T15:25:02.176Z,6.42
2022-11-20T15:30:02.055Z,6.37
2022-11-20T15:35:01.905Z,6.25
2022-11-20T15:40:02.001Z,6.2
2022-11-20T15:45:01.788Z,6.08
2022-11-20T15:50:01.812Z,5.92
2022-11-20T15:55:06.746Z,5.93
2022-11-20T16:00:01.958Z,5.89
2022-11-20T16:05:02.050Z,5.94
2022-11-20T16:10:02.230Z,5.85
2022-11-20T16:15:01.921Z,5.86
2022-11-20T16:20:01.929Z,5.83
2022-11-20T16:25:02.066Z,5.83
2022-11-20T16:30:02.183Z,5.79
2022-11-20T16:35:01.999Z,5.79
2022-11-20T16:40:01.997Z,5.71
2022-11-20T16:45:01.795Z,5.74
2022-11-20T16:50:02.077Z,5.71
2022-11-20T16:55:01.559Z,5.72
2022-11-20T17:00:02.587Z,5.68
2022-11-20T17:05:01.539Z,5.75
2022-11-20T17:10:01.362Z,5.72
2022-11-20T17:15:01.666Z,5.7
2022-11-20T17:20:02.001Z,5.75
2022-11-20T17:25:02.083Z,5.78
2022-11-20T17:30:02.054Z,5.83
2022-11-20T17:35:02.007Z,5.84
2022-11-20T17:40:01.733Z,5.9
2022-11-20T17:45:02.089Z,5.93
2022-11-20T17:50:01.382Z,5.96
2022-11-20T17:55:01.467Z,5.97
2022-11-20T18:00:01.736Z,5.97
2022-11-20T18:05:01.880Z,5.98
2022-11-20T18:10:01.837Z,6.01
2022-11-20T18:15:01.835Z,6.04
2022-11-20T18:20:27.093Z,6.01
2022-11-20T18:25:01.518Z,6.05
2022-11-20T18:30:01.693Z,6.08
2022-11-20T18:35:01.848Z,6.11
2022-11-20T18:40:02.112Z,6.15
2022-11-20T18:45:01.994Z,6.15
2022-11-20T18:50:01.869Z,6.23
2022-11-20T18:55:01.530Z,6.34
2022-11-20T19:00:08.557Z,6.34
2022-11-20T19:05:01.235Z,6.37
2022-11-20T19:10:03.885Z,6.35
2022-11-20T19:15:01.898Z,6.35
2022-11-20T19:20:01.773Z,6.37
2022-11-20T19:25:01.257Z,6.49
2022-11-20T19:30:02.032Z,6.58
2022-11-20T19:35:02.007Z,6.56
2022-11-20T19:40:01.489Z,6.49
2022-11-20T19:45:01.587Z,6.48
2022-11-20T19:50:02.090Z,6.43
2022-11-20T19:55:02.110Z,6.34
2022-11-20T20:00:02.096Z,6.39
2022-11-20T20:05:01.498Z,6.38
2022-11-20T20:10:01.927Z,6.53
2022-11-20T20:15:01.999Z,6.56
2022-11-20T20:20:02.022Z,6.72
2022-11-20T20:25:01.531Z,6.81
2022-11-20T20:30:01.712Z,6.87
2022-11-20T20:35:01.794Z,6.87
2022-11-20T20:40:01.707Z,6.73
2022-11-20T20:45:01.557Z,6.85
2022-11-20T20:50:01.508Z,6.88
2022-11-20T20:55:02.076Z,6.85
2022-11-20T21:00:02.325Z,6.84
2022-11-20T21:05:02.223Z,6.88
2022-11-20T21:10:01.565Z,6.91
2022-11-20T21:15:01.889Z,6.79
2022-11-20T21:20:01.966Z,6.84
2022-11-20T21:25:02.099Z,6.76
2022-11-20T21:30:01.754Z,6.79
2022-11-20T21:35:02.269Z,6.72
2022-11-20T21:40:01.559Z,6.72
2022-11-20T21:45:01.880Z,6.71
2022-11-20T21:50:01.975Z,6.69
2022-11-20T21:55:01.843Z,6.88
2022-11-20T22:00:01.346Z,6.86
2022-11-20T22:05:01.853Z,6.73
2022-11-20T22:10:01.834Z,6.74
2022-11-20T22:15:02.033Z,6.7
2022-11-20T22:20:01.279Z,6.78
2022-11-20T22:25:01.393Z,6.69
2022-11-20T22:30:01.614Z,6.7
2022-11-20T22:35:01.608Z,6.72
2022-11-20T22:40:01.816Z,6.89
2022-11-20T22:45:02.332Z,6.75
2022-11-20T22:50:01.785Z,6.73
2022-11-20T22:55:02.144Z,6.76
2022-11-20T23:00:04.894Z,6.79
2022-11-20T23:05:01.300Z,6.79
2022-11-20T23:10:01.793Z,6.75
2022-11-20T23:15:01.994Z,6.78
2022-11-20T23:20:02.186Z,6.82
2022-11-20T23:25:02.178Z,6.93
2022-11-20T23:30:02.241Z,6.87
2022-11-20T23:35:02.168Z,6.85
2022-11-20T23:40:02.103Z,6.9
2022-11-20T23:45:01.934Z,6.85
2022-11-20T23:50:02.201Z,6.9
2022-11-20T23:55:02.232Z,6.93
